createdAt,value
2022-08-17T00:00:57.581Z,8.30
2022-08-17T00:03:36.013Z,8.02
2022-08-17T00:06:08.545Z,7.65
2022-08-17T00:08:46.110Z,7.25
2022-08-17T00:11:16.475Z,8.05
2022-08-17T00:13:50.324Z,7.32
2022-08-17T00:16:55.828Z,7.35
2022-08-17T00:19:14.259Z,7.50
2022-08-17T00:22:31.003Z,8.32
2022-08-17T00:24:33.086Z,7.55
2022-08-17T00:27:00.029Z,7.80
2022-08-17T00:29:26.962Z,7.88
2022-08-17T00:31:54.776Z,7.50
2022-08-17T00:34:22.694Z,7.57
2022-08-17T00:36:49.853Z,7.75
2022-08-17T00:39:16.691Z,8.00
2022-08-17T00:41:43.592Z,7.40
2022-08-17T00:44:12.217Z,7.97
2022-08-17T00:46:44.521Z,8.10
2022-08-17T00:49:14.207Z,8.30
2022-08-17T00:51:56.049Z,8.18
2022-08-17T00:54:33.975Z,7.93
2022-08-17T00:57:16.363Z,8.02
2022-08-17T01:00:03.196Z,8.75
2022-08-17T01:02:41.736Z,8.75
2022-08-17T01:05:18.468Z,7.57
2022-08-17T01:07:47.862Z,8.40
2022-08-17T01:10:59.966Z,8.48
2022-08-17T01:13:05.766Z,8.35
2022-08-17T01:15:36.929Z,8.07
2022-08-17T01:18:08.814Z,8.70
2022-08-17T01:20:51.230Z,8.38
2022-08-17T01:23:21.344Z,8.77
2022-08-17T01:25:51.101Z,8.38
2022-08-17T01:28:53.009Z,8.00
2022-08-17T01:31:09.099Z,7.93
2022-08-17T01:33:36.451Z,8.48
2022-08-17T01:36:04.970Z,9.20
2022-08-17T01:38:32.141Z,8.88
2022-08-17T01:41:03.049Z,8.77
2022-08-17T01:44:04.204Z,8.88
2022-08-17T01:46:35.706Z,8.60
2022-08-17T01:49:07.651Z,8.90
2022-08-17T01:51:34.767Z,8.85
2022-08-17T01:54:11.375Z,8.30
2022-08-17T01:56:44.141Z,8.52
2022-08-17T01:59:16.562Z,8.63
2022-08-17T02:01:46.569Z,8.35
2022-08-17T02:04:14.602Z,8.45
2022-08-17T02:06:52.959Z,8.85
2022-08-17T02:09:29.667Z,9.70
2022-08-17T02:11:59.707Z,8.98
2022-08-17T02:14:26.955Z,9.35
2022-08-17T02:16:54.195Z,8.60
2022-08-17T02:19:21.974Z,8.82
2022-08-17T02:21:51.424Z,8.23
2022-08-17T02:24:59.360Z,9.30
2022-08-17T02:27:13.759Z,8.88
2022-08-17T02:29:40.698Z,9.40
2022-08-17T02:32:20.992Z,9.40
2022-08-17T02:35:00.373Z,9.10
2022-08-17T02:37:29.751Z,8.35
2022-08-17T02:39:58.543Z,8.85
2022-08-17T02:42:35.093Z,8.25
2022-08-17T02:45:06.810Z,9.13
2022-08-17T02:47:34.791Z,8.70
2022-08-17T02:50:21.399Z,9.95
2022-08-17T02:53:01.655Z,10.82
2022-08-17T02:55:32.768Z,11.13
2022-08-17T02:57:59.947Z,10.75
2022-08-17T03:00:30.804Z,12.57
2022-08-17T03:02:58.109Z,12.80
2022-08-17T03:05:28.698Z,12.77
2022-08-17T03:07:58.169Z,13.30
2022-08-17T03:10:25.794Z,13.70
2022-08-17T03:12:53.659Z,13.32
2022-08-17T03:15:25.000Z,14.68
2022-08-17T03:17:53.380Z,13.82
2022-08-17T03:20:21.460Z,13.57
2022-08-17T03:22:53.125Z,13.95
2022-08-17T03:25:27.349Z,13.70
2022-08-17T03:27:56.758Z,12.77
2022-08-17T03:30:25.170Z,13.02
2022-08-17T03:32:56.143Z,12.55
2022-08-17T03:35:26.305Z,12.77
2022-08-17T03:38:00.399Z,12.93
2022-08-17T03:40:34.430Z,12.32
2022-08-17T03:43:16.433Z,12.85
2022-08-17T03:46:02.828Z,12.18
2022-08-17T03:48:48.714Z,11.50
2022-08-17T03:51:41.869Z,11.75
2022-08-17T03:54:28.542Z,11.60
2022-08-17T03:57:07.403Z,11.60
2022-08-17T03:59:35.482Z,11.65
2022-08-17T04:02:11.412Z,10.18
2022-08-17T04:04:39.210Z,10.73
2022-08-17T04:07:06.933Z,9.65
2022-08-17T04:09:33.988Z,10.70
2022-08-17T04:12:04.784Z,9.88
2022-08-17T04:14:52.312Z,9.77
2022-08-17T04:17:23.308Z,9.48
2022-08-17T04:19:50.290Z,9.98
2022-08-17T04:22:31.965Z,10.68
2022-08-17T04:25:16.347Z,10.23
2022-08-17T04:27:43.413Z,10.90
2022-08-17T04:30:10.895Z,10.57
2022-08-17T04:33:14.641Z,9.93
2022-08-17T04:35:47.510Z,10.50
2022-08-17T04:38:17.959Z,11.30
2022-08-17T04:41:03.807Z,11.13
2022-08-17T04:43:32.567Z,10.95
2022-08-17T04:46:05.759Z,10.52
2022-08-17T04:48:44.125Z,10.75
2022-08-17T04:51:18.968Z,10.90
2022-08-17T04:53:54.281Z,11.48
2022-08-17T04:56:25.042Z,11.15
2022-08-17T04:58:55.896Z,11.18
2022-08-17T05:01:24.811Z,11.10
2022-08-17T05:03:59.177Z,11.23
2022-08-17T05:06:30.117Z,11.63
2022-08-17T05:09:01.138Z,10.52
2022-08-17T05:11:29.885Z,11.13
2022-08-17T05:13:59.104Z,11.02
2022-08-17T05:16:28.604Z,11.68
2022-08-17T05:18:56.788Z,12.05
2022-08-17T05:21:24.260Z,11.82
2022-08-17T05:23:56.169Z,12.68
2022-08-17T05:26:27.337Z,12.18
2022-08-17T05:28:59.431Z,12.27
2022-08-17T05:31:27.894Z,12.25
2022-08-17T05:33:54.849Z,12.45
2022-08-17T05:36:41.985Z,13.38
2022-08-17T05:39:15.896Z,12.82
2022-08-17T05:41:45.599Z,13.02
2022-08-17T05:44:13.763Z,12.48
2022-08-17T05:46:42.542Z,12.43
2022-08-17T05:49:11.158Z,13.52
2022-08-17T05:51:39.098Z,13.10
2022-08-17T05:54:05.962Z,13.88
2022-08-17T05:56:55.105Z,13.95
2022-08-17T05:59:57.382Z,13.60
2022-08-17T06:02:58.731Z,15.50
2022-08-17T06:05:26.719Z,15.80
2022-08-17T06:08:17.625Z,15.20
2022-08-17T06:11:02.941Z,17.58
2022-08-17T06:13:51.736Z,16.30
2022-08-17T06:16:33.611Z,18.52
2022-08-17T06:19:35.768Z,16.15
2022-08-17T06:22:05.759Z,17.60
2022-08-17T06:24:57.251Z,18.00
2022-08-17T06:27:30.403Z,19.50
2022-08-17T06:30:08.115Z,19.23
2022-08-17T06:32:40.399Z,20.65
2022-08-17T06:35:10.201Z,21.92
2022-08-17T06:37:49.718Z,23.98
2022-08-17T06:40:48.951Z,25.77
2022-08-17T06:43:28.837Z,27.30
2022-08-17T06:46:13.052Z,28.90
2022-08-17T06:48:46.832Z,29.98
2022-08-17T06:51:25.959Z,30.02
2022-08-17T06:53:59.687Z,30.73
2022-08-17T06:56:53.902Z,27.73
2022-08-17T06:59:47.122Z,28.67
2022-08-17T07:02:52.396Z,26.15
2022-08-17T07:05:25.472Z,28.92
2022-08-17T07:08:05.021Z,25.30
2022-08-17T07:10:42.703Z,28.13
2022-08-17T07:13:31.097Z,27.83
2022-08-17T07:16:11.179Z,29.25
2022-08-17T07:18:38.170Z,30.08
2022-08-17T07:21:32.481Z,30.42
2022-08-17T07:24:30.254Z,29.45
2022-08-17T07:27:21.317Z,30.60
2022-08-17T07:29:52.930Z,30.83
2022-08-17T07:32:31.790Z,31.57
2022-08-17T07:35:07.477Z,32.83
2022-08-17T07:37:41.759Z,31.77
2022-08-17T07:40:28.373Z,32.25
2022-08-17T07:43:23.390Z,33.95
2022-08-17T07:46:36.992Z,36.53
2022-08-17T07:49:03.763Z,35.72
2022-08-17T07:51:33.988Z,37.95
2022-08-17T07:54:14.611Z,39.60
2022-08-17T07:57:06.881Z,39.33
2022-08-17T07:59:36.837Z,30.77
2022-08-17T08:02:31.112Z,27.05
2022-08-17T08:05:13.022Z,28.48
2022-08-17T08:07:51.366Z,27.15
2022-08-17T08:10:32.952Z,27.83
2022-08-17T08:13:08.651Z,28.48
2022-08-17T08:15:45.222Z,28.25
2022-08-17T08:18:54.582Z,30.52
2022-08-17T08:21:30.290Z,33.05
2022-08-17T08:24:31.277Z,32.00
2022-08-17T08:27:07.155Z,30.75
2022-08-17T08:30:10.912Z,31.50
2022-08-17T08:33:14.671Z,31.90
2022-08-17T08:35:53.653Z,27.30
2022-08-17T08:38:47.324Z,24.55
2022-08-17T08:41:29.778Z,24.02
2022-08-17T08:44:19.888Z,26.35
2022-08-17T08:47:35.500Z,29.23
2022-08-17T08:50:48.177Z,23.98
2022-08-17T08:53:30.062Z,24.95
2022-08-17T08:56:06.504Z,25.10
2022-08-17T08:58:56.179Z,21.25
2022-08-17T09:01:36.786Z,22.48
2022-08-17T09:04:56.142Z,20.23
2022-08-17T09:07:57.373Z,16.92
2022-08-17T09:11:05.049Z,16.92
2022-08-17T09:13:54.302Z,17.60
2022-08-17T09:16:30.366Z,17.10
2022-08-17T09:19:04.974Z,17.38
2022-08-17T09:21:54.298Z,18.77
2022-08-17T09:24:41.750Z,19.92
2022-08-17T09:27:14.724Z,20.15
2022-08-17T09:29:49.955Z,21.17
2022-08-17T09:32:31.389Z,23.20
2022-08-17T09:35:03.613Z,21.38
2022-08-17T09:37:48.003Z,20.13
2022-08-17T09:40:30.466Z,21.42
2022-08-17T09:43:08.618Z,22.55
2022-08-17T09:45:54.054Z,22.45
2022-08-17T09:49:09.872Z,23.23
2022-08-17T09:51:43.805Z,19.90
2022-08-17T09:54:38.539Z,18.98
2022-08-17T09:57:28.760Z,22.00
2022-08-17T10:00:10.901Z,21.35
2022-08-17T10:02:58.681Z,23.08
2022-08-17T10:05:55.018Z,22.73
2022-08-17T10:08:27.772Z,22.92
2022-08-17T10:10:56.859Z,21.25
2022-08-17T10:13:59.650Z,22.48
2022-08-17T10:19:20.934Z,19.45
2022-08-17T10:22:34.701Z,18.90
2022-08-17T10:25:24.818Z,19.08
2022-08-17T10:28:01.433Z,17.73
2022-08-17T10:30:32.597Z,14.15
2022-08-17T10:33:13.501Z,11.85
2022-08-17T10:35:43.975Z,14.13
2022-08-17T10:38:19.752Z,12.32
2022-08-17T10:41:17.621Z,11.10
2022-08-17T10:44:39.054Z,12.77
2022-08-17T10:46:56.272Z,13.18
2022-08-17T10:49:29.406Z,13.77
2022-08-17T10:51:59.039Z,14.60
2022-08-17T10:54:37.136Z,15.63
2022-08-17T10:57:44.918Z,15.80
2022-08-17T11:00:28.539Z,14.90
2022-08-17T11:02:57.535Z,16.17
2022-08-17T11:06:04.307Z,17.48
2022-08-17T11:09:08.199Z,17.73
2022-08-17T11:11:56.776Z,18.88
2022-08-17T11:14:51.544Z,18.40
2022-08-17T11:18:02.193Z,18.85
2022-08-17T11:20:44.101Z,16.33
2022-08-17T11:23:35.140Z,17.85
2022-08-17T11:26:04.131Z,17.23
2022-08-17T11:28:35.880Z,17.83
2022-08-17T11:31:38.280Z,17.13
2022-08-17T11:34:26.443Z,16.67
2022-08-17T11:37:19.438Z,16.02
2022-08-17T11:40:20.735Z,12.88
2022-08-17T11:43:25.413Z,13.50
2022-08-17T11:46:24.777Z,12.00
2022-08-17T11:49:30.097Z,11.68
2022-08-17T11:52:35.884Z,11.98
2022-08-17T11:55:33.510Z,10.77
2022-08-17T11:58:01.096Z,11.52
2022-08-17T12:00:46.478Z,10.30
2022-08-17T12:03:22.568Z,10.70
2022-08-17T12:05:53.493Z,10.35
2022-08-17T12:08:22.414Z,11.45
2022-08-17T12:11:05.273Z,10.63
2022-08-17T12:13:42.915Z,11.25
2022-08-17T12:16:15.022Z,10.60
2022-08-17T12:18:52.325Z,11.18
2022-08-17T12:21:37.633Z,10.40
2022-08-17T12:24:22.918Z,11.05
2022-08-17T12:26:57.229Z,10.98
2022-08-17T12:29:35.418Z,11.88
2022-08-17T12:32:12.947Z,10.48
2022-08-17T12:34:42.641Z,11.20
2022-08-17T12:37:20.747Z,10.93
2022-08-17T12:39:54.619Z,11.70
2022-08-17T12:42:29.371Z,11.15
2022-08-17T12:44:59.531Z,11.43
2022-08-17T12:47:30.025Z,11.73
2022-08-17T12:50:28.223Z,11.70
2022-08-17T12:53:01.770Z,12.32
2022-08-17T12:58:02.099Z,11.52
2022-08-17T13:00:41.181Z,11.52
2022-08-17T13:03:18.071Z,12.30
2022-08-17T13:06:09.002Z,12.60
2022-08-17T13:08:41.177Z,12.55
2022-08-17T13:11:16.176Z,12.18
2022-08-17T13:13:50.916Z,11.77
2022-08-17T13:16:24.263Z,12.13
2022-08-17T13:18:55.627Z,12.13
2022-08-17T13:21:30.559Z,11.93
2022-08-17T13:24:07.986Z,12.38
2022-08-17T13:26:38.847Z,13.13
2022-08-17T13:29:16.518Z,12.88
2022-08-17T13:31:56.271Z,12.48
2022-08-17T13:34:26.961Z,11.55
2022-08-17T13:37:29.878Z,12.68
2022-08-17T13:42:48.033Z,11.77
2022-08-17T13:45:34.913Z,10.70
2022-08-17T13:48:11.112Z,11.57
2022-08-17T13:51:02.780Z,11.55
2022-08-17T13:53:51.176Z,11.43
2022-08-17T13:56:45.397Z,10.30
2022-08-17T13:59:53.078Z,10.27
2022-08-17T14:02:14.497Z,9.50
2022-08-17T14:04:43.157Z,11.23
2022-08-17T14:07:13.044Z,10.35
2022-08-17T14:09:41.047Z,9.77
2022-08-17T14:12:15.373Z,10.50
2022-08-17T14:14:44.925Z,9.27
2022-08-17T14:17:12.789Z,9.90
2022-08-17T14:19:40.908Z,9.45
2022-08-17T14:22:14.955Z,9.15
2022-08-17T14:24:44.865Z,10.98
2022-08-17T14:27:12.383Z,12.80
2022-08-17T14:29:41.161Z,13.02
2022-08-17T14:32:18.939Z,13.88
2022-08-17T14:34:49.590Z,14.77
2022-08-17T14:37:17.749Z,14.50
2022-08-17T14:39:44.753Z,13.32
2022-08-17T14:42:12.250Z,14.23
2022-08-17T14:44:39.876Z,13.77
2022-08-17T14:47:11.183Z,15.43
2022-08-17T14:49:38.279Z,13.43
2022-08-17T14:52:07.926Z,14.20
2022-08-17T14:54:34.847Z,12.75
2022-08-17T14:57:26.123Z,13.05
2022-08-17T14:59:56.630Z,14.15
2022-08-17T15:02:29.353Z,14.15
2022-08-17T15:05:01.866Z,15.10
2022-08-17T15:07:30.097Z,16.00
2022-08-17T15:10:01.384Z,15.15
2022-08-17T15:12:33.107Z,14.77
2022-08-17T15:15:05.508Z,15.60
2022-08-17T15:17:55.072Z,14.68
2022-08-17T15:20:27.859Z,14.88
2022-08-17T15:22:59.231Z,14.38
2022-08-17T15:25:29.766Z,13.90
2022-08-17T15:27:58.426Z,14.13
2022-08-17T15:30:26.613Z,13.52
2022-08-17T15:32:58.161Z,14.00
2022-08-17T15:35:29.330Z,13.30
2022-08-17T15:38:10.684Z,14.20
2022-08-17T15:40:43.325Z,13.52
2022-08-17T15:43:24.844Z,13.48
2022-08-17T15:46:11.985Z,12.88
2022-08-17T15:48:42.190Z,13.60
2022-08-17T15:51:16.364Z,13.32
2022-08-17T15:53:47.469Z,19.88
2022-08-17T15:56:15.413Z,19.38
2022-08-17T15:58:45.047Z,19.73
2022-08-17T16:01:15.013Z,21.88
2022-08-17T16:04:04.996Z,22.00
2022-08-17T16:06:34.630Z,20.98
2022-08-17T16:09:01.992Z,20.10
2022-08-17T16:11:29.001Z,22.20
2022-08-17T16:13:57.951Z,21.95
2022-08-17T16:16:28.938Z,21.52
2022-08-17T16:18:58.845Z,20.67
2022-08-17T16:21:26.766Z,23.67
2022-08-17T16:24:06.456Z,23.38
2022-08-17T16:26:40.488Z,21.27
2022-08-17T16:29:11.007Z,20.05
2022-08-17T16:31:40.933Z,20.27
2022-08-17T16:34:17.092Z,22.08
2022-08-17T16:36:54.547Z,22.65
2022-08-17T16:39:27.282Z,22.27
2022-08-17T16:41:55.992Z,23.88
2022-08-17T16:44:23.091Z,25.30
2022-08-17T16:46:50.490Z,25.02
2022-08-17T16:49:29.676Z,27.15
2022-08-17T16:52:10.452Z,25.33
2022-08-17T16:54:43.396Z,23.92
2022-08-17T16:57:34.673Z,22.13
2022-08-17T17:00:01.667Z,21.48
2022-08-17T17:02:30.461Z,20.98
2022-08-17T17:05:51.391Z,18.83
2022-08-17T17:08:46.728Z,19.05
2022-08-17T17:11:33.723Z,24.13
2022-08-17T17:14:09.475Z,22.52
2022-08-17T17:20:30.669Z,26.60
2022-08-17T17:23:30.756Z,25.08
2022-08-17T17:26:09.589Z,26.50
2022-08-17T17:29:02.355Z,27.77
2022-08-17T17:34:10.646Z,29.42
2022-08-17T17:36:40.512Z,28.40
2022-08-17T17:39:34.989Z,28.80
2022-08-17T17:42:09.775Z,31.85
2022-08-17T17:44:44.704Z,30.58
2022-08-17T17:47:15.303Z,32.33
2022-08-17T17:49:45.144Z,32.00
2022-08-17T17:52:37.884Z,30.83
2022-08-17T17:55:22.044Z,29.52
2022-08-17T17:58:05.368Z,28.23
2022-08-17T18:01:11.216Z,29.65
2022-08-17T18:04:21.370Z,27.50
2022-08-17T18:07:10.000Z,28.10
2022-08-17T18:10:31.656Z,27.98
2022-08-17T18:13:02.970Z,23.55
2022-08-17T18:15:31.424Z,22.35
2022-08-17T18:18:19.765Z,25.63
2022-08-17T18:20:56.188Z,26.67
2022-08-17T18:23:27.891Z,24.05
2022-08-17T18:25:58.646Z,25.52
2022-08-17T18:28:31.046Z,23.80
2022-08-17T18:33:50.023Z,27.58
2022-08-17T18:36:39.898Z,27.58
2022-08-17T18:39:18.076Z,25.77
2022-08-17T18:41:57.070Z,27.92
2022-08-17T18:44:42.038Z,26.92
2022-08-17T18:47:20.876Z,26.50
2022-08-17T18:49:58.183Z,26.23
2022-08-17T18:52:32.159Z,25.63
2022-08-17T18:55:17.563Z,27.30
2022-08-17T18:57:50.722Z,26.25
2022-08-17T19:00:29.892Z,28.65
2022-08-17T19:03:02.242Z,26.83
2022-08-17T19:05:42.802Z,28.30
2022-08-17T19:08:19.242Z,27.48
2022-08-17T19:10:51.844Z,28.90
2022-08-17T19:13:35.933Z,26.25
2022-08-17T19:16:13.990Z,28.50
2022-08-17T19:18:52.724Z,27.73
2022-08-17T19:21:27.313Z,27.63
2022-08-17T19:23:58.778Z,27.17
2022-08-17T19:26:51.124Z,25.85
2022-08-17T19:29:50.611Z,27.88
2022-08-17T19:32:22.957Z,30.42
2022-08-17T19:37:58.778Z,29.83
2022-08-17T19:40:52.959Z,31.02
2022-08-17T19:50:23.684Z,32.72
2022-08-17T19:53:21.553Z,31.25
2022-08-17T19:56:03.012Z,29.08
2022-08-17T19:58:59.318Z,29.80
2022-08-17T20:01:48.500Z,29.88
2022-08-17T20:07:55.501Z,29.60
2022-08-17T20:10:56.471Z,28.02
2022-08-17T20:13:43.614Z,29.80
2022-08-17T20:16:14.394Z,28.08
2022-08-17T20:18:52.804Z,25.45
2022-08-17T20:21:31.075Z,25.65
2022-08-17T20:24:21.701Z,34.40
2022-08-17T20:27:35.480Z,34.28
2022-08-17T20:30:11.834Z,34.13
2022-08-17T20:33:24.055Z,35.75
2022-08-17T20:36:06.685Z,37.92
2022-08-17T20:42:22.510Z,41.67
2022-08-17T20:45:02.884Z,45.85
2022-08-17T20:48:15.241Z,47.63
2022-08-17T20:50:41.550Z,50.88
2022-08-17T20:56:00.372Z,57.97
2022-08-17T20:58:30.717Z,55.63
2022-08-17T21:01:20.276Z,57.78
2022-08-17T21:03:51.893Z,58.10
2022-08-17T21:06:21.697Z,59.42
2022-08-17T21:08:57.885Z,60.08
2022-08-17T21:11:57.288Z,60.65
2022-08-17T21:14:52.011Z,64.03
2022-08-17T21:20:22.185Z,60.33
2022-08-17T21:23:23.585Z,58.72
2022-08-17T21:26:13.307Z,61.33
2022-08-17T21:29:01.430Z,60.33
2022-08-17T21:31:49.705Z,67.13
2022-08-17T21:34:16.671Z,73.43
2022-08-17T21:36:48.435Z,72.63
2022-08-17T21:39:23.314Z,70.38
2022-08-17T21:41:59.836Z,71.18
2022-08-17T21:44:37.033Z,77.73
2022-08-17T21:47:26.469Z,75.05
2022-08-17T21:50:16.471Z,74.30
2022-08-17T21:52:44.854Z,74.75
2022-08-17T21:55:30.162Z,77.07
2022-08-17T21:58:13.708Z,72.80
2022-08-17T22:00:44.660Z,72.50
2022-08-17T22:03:25.941Z,69.50
2022-08-17T22:05:53.129Z,68.90
2022-08-17T22:08:26.000Z,67.80
2022-08-17T22:11:01.130Z,66.93
2022-08-17T22:13:29.394Z,70.20
2022-08-17T22:16:29.275Z,68.30
2022-08-17T22:18:59.026Z,66.60
2022-08-17T22:21:26.693Z,69.05
2022-08-17T22:24:18.818Z,69.55
2022-08-17T22:27:00.874Z,73.05
2022-08-17T22:30:13.834Z,74.22
2022-08-17T22:32:44.707Z,74.13
2022-08-17T22:35:47.518Z,74.95
2022-08-17T22:38:19.123Z,75.55
2022-08-17T22:40:49.803Z,73.30
2022-08-17T22:43:44.740Z,75.72
2022-08-17T22:46:13.147Z,74.50
2022-08-17T22:48:50.830Z,74.38
2022-08-17T22:51:23.661Z,75.47
2022-08-17T22:54:16.209Z,74.30
2022-08-17T22:57:32.131Z,74.95
2022-08-17T23:00:00.667Z,76.82
2022-08-17T23:02:33.958Z,76.45
2022-08-17T23:05:12.963Z,74.82
2022-08-17T23:07:42.504Z,74.20
2022-08-17T23:10:11.534Z,73.85
2022-08-17T23:12:40.548Z,74.30
2022-08-17T23:15:16.040Z,72.88
2022-08-17T23:17:45.265Z,73.10
2022-08-17T23:20:16.174Z,72.68
2022-08-17T23:22:52.762Z,73.97
2022-08-17T23:25:32.368Z,74.32
2022-08-17T23:28:01.687Z,75.07
2022-08-17T23:30:34.959Z,77.95
2022-08-17T23:33:07.009Z,78.75
2022-08-17T23:35:40.256Z,78.45
2022-08-17T23:38:10.048Z,80.28
2022-08-17T23:40:39.361Z,85.60
2022-08-17T23:43:25.526Z,86.53
2022-08-17T23:45:57.557Z,83.43
2022-08-17T23:48:35.956Z,85.13
2022-08-17T23:51:09.813Z,84.22
2022-08-17T23:53:41.869Z,86.50
2022-08-17T23:56:15.207Z,88.57
2022-08-17T23:58:44.759Z,86.45
